Time;durP1;ratioP1;P1;durP2;ratioP2;P2;SDS_P1;SDS_P2;PMS_P1;PMS_P2;Temp;Humidity;BMP_temperature;BMP_pressure;BME280_temperature;BME280_humidity;BME280_pressure;Samples;Min_cycle;Max_cycle;Signal;HPM_P1;HPM_P2
2022/09/07 00:01:36;;;;;;;3.40;2.20;;;16.80;99.90;;;;;;4966265;28;20501;-51
2022/09/07 00:04:03;;;;;;;2.60;2.00;;;16.80;99.90;;;;;;4972318;28;20461;-51
2022/09/07 00:06:30;;;;;;;4.47;1.90;;;16.70;99.90;;;;;;4970425;28;20544;-51
2022/09/07 00:08:57;;;;;;;2.23;1.60;;;16.70;99.90;;;;;;4974985;28;20493;-51
2022/09/07 00:11:23;;;;;;;4.30;1.93;;;16.70;99.90;;;;;;4971543;28;20488;-51
2022/09/07 00:13:50;;;;;;;2.30;1.57;;;16.70;99.90;;;;;;4967521;28;20473;-52
2022/09/07 00:16:20;;;;;;;3.43;1.63;;;16.70;99.90;;;;;;4966623;28;20523;-52
2022/09/07 00:18:47;;;;;;;2.13;1.93;;;16.70;99.90;;;;;;4970212;28;20536;-51
2022/09/07 00:21:16;;;;;;;4.23;2.20;;;16.70;99.90;;;;;;4969878;28;20487;-50
2022/09/07 00:23:44;;;;;;;3.37;1.90;;;16.70;99.90;;;;;;4970824;28;20465;-51
2022/09/07 00:26:14;;;;;;;4.20;1.93;;;16.70;99.90;;;;;;4968397;28;20512;-52
2022/09/07 00:28:41;;;;;;;2.63;2.10;;;16.70;99.90;;;;;;4967321;28;20489;-51
2022/09/07 00:31:10;;;;;;;4.73;2.00;;;16.70;99.90;;;;;;4969590;28;20473;-50
2022/09/07 00:33:39;;;;;;;3.90;1.50;;;16.70;99.90;;;;;;4967985;28;20497;-51
2022/09/07 00:36:06;;;;;;;1.93;1.80;;;16.70;99.90;;;;;;4969896;28;20854;-51
2022/09/07 00:38:32;;;;;;;6.97;2.67;;;16.70;99.90;;;;;;4970941;28;20489;-52
2022/09/07 00:40:59;;;;;;;1.77;1.50;;;16.70;99.90;;;;;;4969609;28;20509;-50
2022/09/07 00:43:32;;;;;;;1.83;1.73;;;16.60;99.90;;;;;;4972913;28;20853;-51
2022/09/07 00:45:58;;;;;;;3.50;1.80;;;16.70;99.90;;;;;;4963476;28;20470;-51
2022/09/07 00:48:29;;;;;;;3.50;1.83;;;16.70;99.90;;;;;;4967051;28;20485;-51
2022/09/07 00:51:01;;;;;;;2.37;1.80;;;16.70;99.90;;;;;;4968744;28;20457;-51
2022/09/07 00:53:31;;;;;;;2.33;2.10;;;16.70;99.90;;;;;;4964619;28;20893;-52
2022/09/07 00:55:59;;;;;;;3.83;1.90;;;16.70;99.90;;;;;;4968944;28;20964;-51
2022/09/07 00:58:27;;;;;;;1.93;1.80;;;16.70;99.90;;;;;;4966154;28;20815;-52
2022/09/07 01:00:54;;;;;;;1.80;1.53;;;16.70;99.90;;;;;;4967853;28;20497;-51
2022/09/07 01:03:25;;;;;;;4.07;1.60;;;16.60;99.90;;;;;;4966089;28;20469;-50
2022/09/07 01:05:57;;;;;;;1.83;1.70;;;16.60;99.90;;;;;;4966654;28;20903;-51
2022/09/07 01:08:26;;;;;;;2.00;1.80;;;16.60;99.90;;;;;;4971945;28;20575;-51
2022/09/07 01:10:53;;;;;;;3.73;1.87;;;16.60;99.90;;;;;;4965563;28;20967;-51
2022/09/07 01:13:19;;;;;;;5.23;2.07;;;16.60;99.90;;;;;;4968301;28;20497;-51
2022/09/07 01:15:55;;;;;;;5.60;1.83;;;16.50;1.40;;;;;;4966402;28;20528;-51
2022/09/07 01:18:28;;;;;;;2.07;1.67;;;16.50;99.90;;;;;;4964673;28;20453;-52
2022/09/07 01:21:14;;;;;;;5.77;2.27;;;16.50;99.90;;;;;;4968624;28;20827;-52
2022/09/07 01:24:16;;;;;;;3.80;1.83;;;16.50;99.90;;;;;;4965622;28;20528;-51
2022/09/07 01:27:06;;;;;;;2.60;1.80;;;16.50;99.90;;;;;;4943457;28;20910;-51
2022/09/07 01:29:40;;;;;;;1.83;1.73;;;16.40;99.90;;;;;;4968599;28;21053;-51
2022/09/07 01:32:13;;;;;;;6.40;2.27;;;16.40;1.40;;;;;;4969991;28;20488;-51
2022/09/07 01:34:43;;;;;;;4.20;1.50;;;16.40;99.90;;;;;;4973690;28;20596;-51
2022/09/07 01:37:16;;;;;;;6.50;1.90;;;16.40;99.90;;;;;;4973642;28;20489;-51
2022/09/07 01:39:50;;;;;;;3.87;1.93;;;16.40;99.90;;;;;;4972284;28;20504;-51
2022/09/07 01:42:23;;;;;;;3.40;1.73;;;16.30;99.90;;;;;;4970369;28;20523;-51
2022/09/07 01:44:55;;;;;;;7.40;2.00;;;16.30;99.90;;;;;;4972842;28;20534;-51
2022/09/07 01:47:28;;;;;;;4.83;2.70;;;16.30;99.90;;;;;;4966656;28;20536;-51
2022/09/07 01:50:01;;;;;;;2.13;1.73;;;16.30;99.90;;;;;;4974368;28;20513;-51
2022/09/07 01:52:34;;;;;;;4.83;1.70;;;16.30;99.90;;;;;;4969893;28;20465;-52
2022/09/07 01:55:06;;;;;;;7.20;2.20;;;16.20;99.90;;;;;;4970871;28;20457;-51
2022/09/07 01:57:38;;;;;;;1.77;1.63;;;16.20;99.90;;;;;;4972357;28;20492;-52
2022/09/07 02:00:09;;;;;;;4.63;2.10;;;16.20;99.90;;;;;;4968546;28;20567;-51
2022/09/07 02:02:39;;;;;;;6.47;1.90;;;16.20;99.90;;;;;;4968904;28;20469;-50
2022/09/07 02:05:10;;;;;;;11.13;1.80;;;16.20;99.90;;;;;;4971905;28;20464;-50
2022/09/07 02:07:43;;;;;;;3.17;2.20;;;16.10;99.90;;;;;;4967757;28;21078;-52
2022/09/07 02:10:15;;;;;;;7.40;2.30;;;16.10;99.90;;;;;;4971876;28;20555;-51
2022/09/07 02:12:47;;;;;;;2.33;2.07;;;16.10;99.90;;;;;;4969162;28;20497;-52
2022/09/07 02:15:21;;;;;;;3.27;2.20;;;16.10;99.90;;;;;;4968859;28;20523;-50
2022/09/07 02:17:51;;;;;;;7.70;2.13;;;16.10;99.90;;;;;;4975474;28;20461;-51
2022/09/07 02:20:21;;;;;;;2.80;1.83;;;16.10;99.90;;;;;;4968306;28;20575;-51
2022/09/07 02:22:53;;;;;;;2.40;2.20;;;16.10;99.90;;;;;;4970561;28;20462;-52
2022/09/07 02:25:23;;;;;;;5.83;2.40;;;16.10;99.90;;;;;;4972012;28;20492;-51
2022/09/07 02:27:55;;;;;;;3.73;2.00;;;16.00;99.90;;;;;;4971853;28;20477;-51
2022/09/07 02:30:23;;;;;;;2.60;2.03;;;16.00;99.90;;;;;;4967286;28;20851;-52
2022/09/07 02:32:49;;;;;;;3.47;2.13;;;16.10;99.90;;;;;;4973318;28;20462;-50
2022/09/07 02:35:16;;;;;;;4.20;1.90;;;16.00;99.90;;;;;;4970227;28;20462;-51
2022/09/07 02:37:44;;;;;;;6.20;2.30;;;16.00;99.90;;;;;;4971694;28;20461;-51
2022/09/07 02:40:13;;;;;;;3.43;2.17;;;16.00;99.90;;;;;;4971125;28;20524;-51
2022/09/07 02:42:41;;;;;;;2.93;2.33;;;16.00;99.90;;;;;;4970468;28;20551;-51
2022/09/07 02:45:11;;;;;;;10.33;1.87;;;16.00;99.90;;;;;;4970654;28;20472;-53
2022/09/07 02:47:52;;;;;;;2.10;2.00;;;16.00;99.90;;;;;;4970548;28;20484;-51
2022/09/07 02:50:39;;;;;;;4.40;2.03;;;16.00;99.90;;;;;;4969065;28;20484;-51
2022/09/07 02:53:22;;;;;;;2.53;2.33;;;16.00;99.90;;;;;;4968015;28;20551;-51
2022/09/07 02:55:58;;;;;;;2.43;2.20;;;16.00;99.90;;;;;;4972161;28;20497;-51
2022/09/07 02:58:33;;;;;;;8.33;2.47;;;16.00;99.90;;;;;;4970332;28;20559;-51
2022/09/07 03:01:07;;;;;;;2.30;2.10;;;16.00;99.90;;;;;;4964465;28;20496;-51
2022/09/07 03:03:46;;;;;;;4.47;2.30;;;16.00;99.90;;;;;;4969866;28;20952;-51
2022/09/07 03:06:18;;;;;;;3.90;2.47;;;15.90;99.90;;;;;;4970563;28;20545;-52
2022/09/07 03:08:49;;;;;;;4.93;2.00;;;16.00;99.90;;;;;;4971200;28;20501;-51
2022/09/07 03:11:16;;;;;;;2.07;1.90;;;15.90;99.90;;;;;;4972794;28;21538;-52
2022/09/07 03:13:43;;;;;;;4.00;2.37;;;15.90;99.90;;;;;;4976029;28;20473;-50
2022/09/07 03:16:12;;;;;;;5.80;1.90;;;15.90;99.90;;;;;;4971641;28;20516;-51
2022/09/07 03:18:43;;;;;;;3.53;2.03;;;15.90;99.90;;;;;;4970167;28;20521;-51
2022/09/07 03:21:09;;;;;;;3.07;2.10;;;15.90;99.90;;;;;;4972239;28;20845;-50
2022/09/07 03:23:36;;;;;;;9.43;2.87;;;15.80;99.90;;;;;;4969879;28;20465;-51
2022/09/07 03:26:03;;;;;;;9.97;2.37;;;15.80;99.90;;;;;;4968578;28;20461;-51
2022/09/07 03:28:30;;;;;;;5.67;2.40;;;15.80;99.90;;;;;;4968586;28;20563;-51
2022/09/07 03:30:56;;;;;;;4.53;2.10;;;15.70;99.90;;;;;;4965809;28;21009;-52
2022/09/07 03:33:23;;;;;;;3.07;2.10;;;15.70;99.90;;;;;;4970016;28;20524;-50
2022/09/07 03:35:59;;;;;;;6.67;2.20;;;15.70;99.90;;;;;;4970655;28;20493;-51
2022/09/07 03:38:25;;;;;;;2.10;2.00;;;15.70;99.90;;;;;;4969348;28;20505;-52
2022/09/07 03:40:58;;;;;;;8.13;2.23;;;15.70;99.90;;;;;;4965853;28;20503;-51
2022/09/07 03:43:25;;;;;;;2.90;2.37;;;15.60;99.90;;;;;;4971317;28;20476;-51
2022/09/07 03:45:57;;;;;;;2.57;2.33;;;15.60;99.90;;;;;;4976455;28;20492;-52
2022/09/07 03:48:23;;;;;;;3.83;2.30;;;15.50;99.90;;;;;;4968148;28;20567;-51
2022/09/07 03:50:57;;;;;;;5.43;2.57;;;15.50;99.90;;;;;;4968526;28;20881;-52
2022/09/07 03:53:24;;;;;;;7.60;2.30;;;15.50;99.90;;;;;;4967804;28;20489;-51
2022/09/07 03:55:56;;;;;;;3.90;2.77;;;15.40;99.90;;;;;;4966450;28;20465;-51
2022/09/07 03:58:23;;;;;;;11.13;2.40;;;15.40;99.90;;;;;;4966908;28;20852;-50
2022/09/07 04:00:49;;;;;;;3.27;1.80;;;15.40;99.90;;;;;;4969771;28;20900;-50
2022/09/07 04:03:16;;;;;;;4.30;2.10;;;15.30;99.90;;;;;;4969753;28;20485;-51
2022/09/07 04:05:42;;;;;;;7.07;3.40;;;15.30;99.90;;;;;;4968996;28;21047;-51
2022/09/07 04:08:10;;;;;;;3.67;1.90;;;15.30;99.90;;;;;;4970999;28;20517;-50
2022/09/07 04:10:38;;;;;;;3.50;2.63;;;15.30;99.90;;;;;;4968791;28;20521;-51
2022/09/07 04:13:04;;;;;;;5.30;2.27;;;15.30;99.90;;;;;;4969131;28;20508;-51
2022/09/07 04:15:31;;;;;;;3.50;2.37;;;15.20;99.90;;;;;;4965776;28;20466;-51
2022/09/07 04:17:57;;;;;;;3.50;2.10;;;15.20;99.90;;;;;;4971847;28;20453;-50
2022/09/07 04:20:24;;;;;;;2.50;2.20;;;15.20;99.90;;;;;;4970582;28;20568;-51
2022/09/07 04:22:51;;;;;;;8.00;2.50;;;15.20;99.90;;;;;;4968327;28;20461;-51
2022/09/07 04:25:19;;;;;;;3.10;2.40;;;15.20;99.90;;;;;;4969721;28;20543;-52
2022/09/07 04:27:46;;;;;;;5.50;2.27;;;15.10;99.90;;;;;;4968379;28;20547;-51
2022/09/07 04:30:13;;;;;;;5.80;4.20;;;15.10;99.90;;;;;;4968620;28;20571;-51
2022/09/07 04:32:40;;;;;;;6.60;2.90;;;15.10;99.90;;;;;;4967665;28;20470;-51
2022/09/07 04:35:08;;;;;;;4.00;2.73;;;15.10;99.90;;;;;;4968790;28;20475;-51
2022/09/07 04:37:34;;;;;;;4.00;2.50;;;15.10;99.90;;;;;;4970697;28;20461;-50
2022/09/07 04:40:01;;;;;;;8.20;2.97;;;15.00;99.90;;;;;;4968074;28;20525;-51
2022/09/07 04:42:29;;;;;;;3.33;2.17;;;15.10;99.90;;;;;;4968951;28;20461;-51
2022/09/07 04:44:56;;;;;;;8.70;2.70;;;15.00;99.90;;;;;;4969610;28;20557;-52
2022/09/07 04:47:23;;;;;;;5.80;2.77;;;15.00;99.90;;;;;;4969858;28;20493;-52
2022/09/07 04:49:50;;;;;;;7.20;2.60;;;15.00;99.90;;;;;;4967142;28;20492;-52
2022/09/07 04:52:17;;;;;;;12.00;2.97;;;15.00;99.90;;;;;;4969200;28;20490;-51
2022/09/07 04:54:44;;;;;;;11.40;2.77;;;15.00;99.90;;;;;;4969902;28;20460;-50
2022/09/07 04:57:11;;;;;;;4.60;2.97;;;14.90;99.90;;;;;;4969639;28;20521;-50
2022/09/07 04:59:39;;;;;;;4.10;2.13;;;14.90;99.90;;;;;;4966932;28;20513;-51
2022/09/07 05:02:05;;;;;;;9.43;3.53;;;14.90;99.90;;;;;;4966470;28;20537;-51
2022/09/07 05:04:34;;;;;;;22.37;3.13;;;14.90;99.90;;;;;;4967440;28;20465;-52
2022/09/07 05:07:01;;;;;;;6.27;2.77;;;14.90;99.90;;;;;;4971889;28;20497;-52
2022/09/07 05:09:28;;;;;;;6.53;3.53;;;14.90;99.90;;;;;;4969664;28;20884;-51
2022/09/07 05:11:54;;;;;;;3.37;2.37;;;15.00;99.90;;;;;;4972559;28;20556;-51
2022/09/07 05:14:21;;;;;;;5.07;2.60;;;14.90;99.90;;;;;;4967313;28;20943;-51
2022/09/07 05:16:49;;;;;;;9.10;3.10;;;15.00;99.90;;;;;;4965500;28;20907;-51
2022/09/07 05:19:16;;;;;;;4.67;2.30;;;15.00;99.90;;;;;;4967469;28;20477;-51
2022/09/07 05:21:42;;;;;;;4.90;2.70;;;15.00;99.90;;;;;;4968025;28;20501;-52
2022/09/07 05:24:09;;;;;;;2.80;2.40;;;15.00;99.90;;;;;;4970669;28;20512;-51
2022/09/07 05:26:38;;;;;;;5.80;3.00;;;15.00;99.90;;;;;;4970350;28;20493;-51
2022/09/07 05:29:07;;;;;;;14.23;3.40;;;15.10;99.90;;;;;;4969085;28;20493;-50
2022/09/07 05:31:33;;;;;;;20.93;4.47;;;15.10;99.90;;;;;;4965827;28;20465;-52
2022/09/07 05:34:01;;;;;;;27.40;4.00;;;15.10;99.90;;;;;;4967446;28;20497;-51
2022/09/07 05:36:28;;;;;;;10.20;3.20;;;15.20;99.90;;;;;;4965915;28;20887;-52
2022/09/07 05:38:57;;;;;;;11.20;2.63;;;15.20;99.90;;;;;;4971250;28;20493;-50
2022/09/07 05:41:25;;;;;;;8.40;3.53;;;15.20;99.90;;;;;;4968764;28;20462;-51
2022/09/07 05:43:52;;;;;;;5.63;3.00;;;15.20;99.90;;;;;;4967911;28;20462;-50
2022/09/07 05:46:19;;;;;;;4.50;3.03;;;15.20;99.90;;;;;;4965793;28;20461;-50
2022/09/07 05:48:46;;;;;;;6.20;2.90;;;15.20;99.90;;;;;;4968373;28;20556;-50
2022/09/07 05:51:14;;;;;;;6.00;2.97;;;15.20;99.90;;;;;;4969763;28;20461;-50
2022/09/07 05:53:42;;;;;;;9.37;3.50;;;15.20;99.90;;;;;;4969949;28;20496;-50
2022/09/07 05:56:09;;;;;;;12.83;3.10;;;15.20;99.90;;;;;;4968952;28;20512;-50
2022/09/07 05:58:36;;;;;;;4.80;2.60;;;15.20;99.90;;;;;;4965537;28;20517;-50
2022/09/07 06:01:06;;;;;;;10.23;2.53;;;15.20;99.90;;;;;;4970447;28;20508;-50
2022/09/07 06:03:32;;;;;;;5.37;3.83;;;15.20;99.90;;;;;;4966738;28;20465;-50
2022/09/07 06:06:01;;;;;;;5.40;2.90;;;15.20;99.90;;;;;;4967802;28;20994;-50
2022/09/07 06:08:30;;;;;;;3.03;2.67;;;15.20;99.90;;;;;;4963797;28;20489;-50
2022/09/07 06:10:57;;;;;;;6.27;3.30;;;15.30;99.90;;;;;;4970063;28;20993;-50
2022/09/07 06:13:24;;;;;;;7.20;3.60;;;15.30;99.90;;;;;;4965612;28;20465;-50
2022/09/07 06:15:50;;;;;;;10.40;3.43;;;15.40;99.90;;;;;;4968736;28;20979;-50
2022/09/07 06:18:17;;;;;;;3.33;2.80;;;15.40;99.90;;;;;;4969369;28;21381;-50
2022/09/07 06:20:44;;;;;;;14.70;3.27;;;15.50;99.90;;;;;;4975380;28;20906;-51
2022/09/07 06:23:10;;;;;;;4.03;3.40;;;15.60;99.90;;;;;;4966802;28;20478;-50
2022/09/07 06:25:47;;;;;;;6.73;3.53;;;15.60;99.90;;;;;;4971557;28;20493;-50
2022/09/07 06:28:13;;;;;;;5.13;3.20;;;15.70;99.90;;;;;;4971216;28;20517;-50
2022/09/07 06:30:40;;;;;;;3.77;3.10;;;15.70;99.90;;;;;;4970948;28;20492;-50
2022/09/07 06:33:06;;;;;;;6.73;4.23;;;15.80;99.90;;;;;;4972692;28;20465;-50
2022/09/07 06:35:33;;;;;;;5.43;4.03;;;15.90;99.90;;;;;;4971779;28;20493;-50
2022/09/07 06:38:00;;;;;;;5.57;3.00;;;15.90;99.90;;;;;;4973730;28;20461;-51
2022/09/07 06:40:26;;;;;;;4.90;2.97;;;16.00;99.90;;;;;;4966518;28;20520;-50
2022/09/07 06:42:54;;;;;;;6.60;3.60;;;16.00;99.90;;;;;;4970820;28;20554;-52
2022/09/07 06:45:21;;;;;;;11.93;3.00;;;16.10;99.90;;;;;;4966890;28;20465;-53
2022/09/07 06:47:47;;;;;;;4.70;3.30;;;16.10;99.90;;;;;;4976078;28;20959;-52
2022/09/07 06:50:16;;;;;;;11.40;4.50;;;16.20;99.90;;;;;;4970957;28;20492;-53
2022/09/07 06:52:42;;;;;;;4.13;3.50;;;16.30;99.90;;;;;;4974410;28;20458;-52
2022/09/07 06:55:09;;;;;;;11.23;3.77;;;16.30;99.90;;;;;;4974970;28;21061;-52
2022/09/07 06:57:36;;;;;;;4.13;3.30;;;16.40;99.90;;;;;;4979965;28;20516;-52
2022/09/07 07:00:05;;;;;;;7.07;3.37;;;16.50;99.90;;;;;;4967138;28;20482;-52
2022/09/07 07:02:32;;;;;;;7.00;3.83;;;16.60;99.90;;;;;;4971390;28;20469;-52
2022/09/07 07:04:59;;;;;;;5.13;2.63;;;16.70;99.90;;;;;;4968686;28;20457;-53
2022/09/07 07:07:25;;;;;;;6.27;3.73;;;16.80;99.90;;;;;;4970098;28;20497;-53
2022/09/07 07:09:52;;;;;;;7.70;3.67;;;16.90;99.90;;;;;;4975743;28;20568;-53
2022/09/07 07:12:18;;;;;;;4.93;3.83;;;17.00;99.90;;;;;;4967262;28;20466;-53
2022/09/07 07:14:45;;;;;;;4.73;3.13;;;17.00;99.90;;;;;;4963828;28;20462;-53
2022/09/07 07:17:13;;;;;;;17.77;3.30;;;17.10;99.90;;;;;;4967134;28;20892;-53
2022/09/07 07:19:40;;;;;;;11.17;4.57;;;17.20;99.90;;;;;;4969912;28;20489;-55
2022/09/07 07:22:06;;;;;;;8.37;3.70;;;17.30;99.90;;;;;;4972731;28;20485;-52
2022/09/07 07:24:33;;;;;;;7.87;3.70;;;17.40;99.90;;;;;;4971230;28;20528;-54
2022/09/07 07:26:59;;;;;;;16.00;4.87;;;17.50;99.90;;;;;;4972170;28;20485;-53
2022/09/07 07:29:26;;;;;;;8.20;3.70;;;17.50;99.90;;;;;;4971704;28;20517;-52
2022/09/07 07:31:52;;;;;;;13.70;3.97;;;17.60;99.90;;;;;;4970776;28;20501;-52
2022/09/07 07:34:20;;;;;;;9.53;5.03;;;17.70;99.90;;;;;;4971115;28;20465;-52
2022/09/07 07:36:47;;;;;;;11.13;3.90;;;17.70;99.90;;;;;;4970037;28;20469;-52
2022/09/07 07:39:13;;;;;;;6.70;3.60;;;17.70;99.90;;;;;;4971421;28;20645;-54
2022/09/07 07:41:40;;;;;;;6.90;3.77;;;17.90;99.90;;;;;;4965109;28;20527;-52
2022/09/07 07:44:06;;;;;;;22.00;3.87;;;17.90;99.90;;;;;;4970704;28;20489;-53
2022/09/07 07:46:33;;;;;;;9.90;3.70;;;18.00;99.90;;;;;;4972778;28;20504;-53
2022/09/07 07:49:00;;;;;;;5.00;3.87;;;18.00;99.90;;;;;;4974756;28;20489;-53
2022/09/07 07:51:27;;;;;;;10.57;4.13;;;18.10;99.90;;;;;;4965665;28;20465;-53
2022/09/07 07:53:54;;;;;;;8.00;3.93;;;18.10;99.90;;;;;;4972186;28;20935;-52
2022/09/07 07:56:21;;;;;;;5.10;4.17;;;18.20;99.90;;;;;;4968084;28;20466;-53
2022/09/07 07:58:48;;;;;;;7.50;4.53;;;18.30;99.90;;;;;;4972976;28;20485;-53
2022/09/07 08:01:16;;;;;;;10.00;4.43;;;18.40;99.90;;;;;;4971370;28;20465;-53
2022/09/07 08:03:45;;;;;;;6.17;3.83;;;18.50;99.90;;;;;;4978193;28;20465;-52
2022/09/07 08:06:13;;;;;;;4.87;4.17;;;18.60;99.90;;;;;;4978398;28;20491;-53
2022/09/07 08:08:41;;;;;;;8.20;4.23;;;18.70;99.90;;;;;;4969108;28;21087;-53
2022/09/07 08:11:11;;;;;;;6.37;4.13;;;18.90;99.90;;;;;;4978353;28;20496;-53
2022/09/07 08:13:40;;;;;;;7.93;3.97;;;19.00;99.90;;;;;;4975091;28;20931;-52
2022/09/07 08:16:08;;;;;;;9.67;4.27;;;19.20;99.90;;;;;;4976039;28;20536;-53
2022/09/07 08:18:36;;;;;;;21.93;5.60;;;19.10;99.90;;;;;;4970905;28;20543;-53
2022/09/07 08:21:04;;;;;;;4.93;3.87;;;19.20;99.90;;;;;;4974536;28;20868;-53
2022/09/07 08:23:32;;;;;;;12.33;4.27;;;19.20;99.90;;;;;;4971289;28;20445;-53
2022/09/07 08:26:00;;;;;;;7.30;4.37;;;19.30;99.90;;;;;;4974916;28;20524;-53
2022/09/07 08:28:28;;;;;;;5.33;4.20;;;19.40;99.90;;;;;;4960860;28;20482;-52
2022/09/07 08:30:55;;;;;;;5.60;4.40;;;19.40;99.90;;;;;;4970104;28;20528;-53
2022/09/07 08:33:22;;;;;;;5.13;4.80;;;19.50;99.90;;;;;;4972912;28;20477;-53
2022/09/07 08:35:56;;;;;;;6.40;4.53;;;19.60;99.90;;;;;;4973278;28;20493;-53
2022/09/07 08:38:23;;;;;;;7.90;4.10;;;19.70;99.90;;;;;;4969031;28;20453;-53
2022/09/07 08:40:50;;;;;;;10.90;4.70;;;19.80;99.90;;;;;;4967515;28;20500;-53
2022/09/07 08:43:28;;;;;;;7.30;5.70;;;19.90;99.90;;;;;;4972061;28;20457;-53
2022/09/07 08:45:59;;;;;;;16.83;4.97;;;20.00;99.90;;;;;;4969768;28;20491;-53
2022/09/07 08:48:30;;;;;;;8.33;4.80;;;20.00;99.90;;;;;;4971564;28;20509;-53
2022/09/07 08:51:02;;;;;;;9.93;3.93;;;20.10;99.90;;;;;;4971467;28;20481;-52
2022/09/07 08:53:29;;;;;;;9.47;5.10;;;20.20;99.90;;;;;;4967610;28;20528;-54
2022/09/07 08:56:00;;;;;;;9.70;4.50;;;20.30;99.90;;;;;;4972202;28;20515;-53
2022/09/07 08:58:39;;;;;;;6.73;4.77;;;20.40;99.90;;;;;;4972637;28;20481;-52
2022/09/07 09:01:11;;;;;;;6.07;4.70;;;20.50;99.90;;;;;;4972828;28;20540;-52
2022/09/07 09:03:38;;;;;;;9.10;5.20;;;20.50;99.90;;;;;;4979480;28;20530;-52
2022/09/07 09:06:12;;;;;;;10.40;4.97;;;20.60;99.90;;;;;;4975678;28;20561;-53
2022/09/07 09:09:06;;;;;;;13.80;4.90;;;20.80;99.90;;;;;;4969061;28;20600;-53
2022/09/07 09:11:43;;;;;;;12.77;5.53;;;20.80;99.90;;;;;;4967070;28;20955;-53
2022/09/07 09:14:19;;;;;;;5.33;4.80;;;21.00;99.90;;;;;;4977628;28;20471;-52
2022/09/07 09:16:51;;;;;;;5.80;5.30;;;21.00;99.90;;;;;;4970237;28;20461;-53
2022/09/07 09:19:49;;;;;;;8.37;5.30;;;21.00;99.90;;;;;;4974522;28;20558;-53
2022/09/07 09:22:18;;;;;;;7.43;5.77;;;21.10;99.90;;;;;;4969506;28;20933;-54
2022/09/07 09:24:47;;;;;;;8.83;4.50;;;21.30;99.90;;;;;;4969901;28;20456;-53
2022/09/07 09:27:15;;;;;;;19.53;5.83;;;21.40;99.90;;;;;;4976479;28;20465;-53
2022/09/07 09:29:43;;;;;;;9.33;4.60;;;21.50;99.90;;;;;;4980803;28;20583;-53
2022/09/07 09:32:33;;;;;;;8.07;4.90;;;21.60;99.90;;;;;;4971039;28;20477;-52
2022/09/07 09:35:11;;;;;;;7.70;5.00;;;21.60;99.90;;;;;;4977093;28;20524;-53
2022/09/07 09:37:39;;;;;;;8.17;4.90;;;21.90;99.90;;;;;;4969224;28;20461;-53
2022/09/07 09:40:15;;;;;;;4.93;4.10;;;22.00;99.90;;;;;;4972430;28;20465;-53
2022/09/07 09:42:42;;;;;;;9.07;4.73;;;22.30;99.90;;;;;;4971025;28;20456;-54
2022/09/07 09:45:19;;;;;;;7.83;4.40;;;22.30;99.90;;;;;;4971378;28;20516;-53
2022/09/07 09:47:49;;;;;;;12.23;5.80;;;22.40;99.90;;;;;;4970610;28;20460;-52
2022/09/07 09:50:20;;;;;;;6.10;4.87;;;22.50;99.90;;;;;;4969593;28;20580;-52
2022/09/07 09:52:48;;;;;;;8.10;6.00;;;22.40;99.90;;;;;;4974613;28;20841;-52
2022/09/07 09:55:24;;;;;;;8.17;5.07;;;22.50;99.90;;;;;;4976069;28;20445;-52
2022/09/07 09:57:52;;;;;;;12.63;5.37;;;22.50;99.90;;;;;;4975022;28;20500;-53
2022/09/07 10:00:22;;;;;;;10.10;5.27;;;22.60;99.90;;;;;;4975348;28;20481;-52
2022/09/07 10:03:04;;;;;;;5.53;5.03;;;22.60;99.90;;;;;;4974324;28;20555;-53
2022/09/07 10:05:35;;;;;;;7.17;5.37;;;22.60;99.90;;;;;;4976586;28;20508;-53
2022/09/07 10:08:02;;;;;;;11.73;5.47;;;22.60;99.90;;;;;;4967839;28;20469;-52
2022/09/07 10:10:30;;;;;;;10.60;5.77;;;22.60;99.90;;;;;;4976727;28;20496;-53
2022/09/07 10:12:57;;;;;;;11.30;5.40;;;22.60;99.90;;;;;;4976746;28;20444;-53
2022/09/07 10:15:33;;;;;;;8.73;5.90;;;22.60;99.90;;;;;;4973765;28;20892;-52
2022/09/07 10:18:03;;;;;;;16.83;5.60;;;22.60;99.90;;;;;;4977650;28;21058;-53
2022/09/07 10:20:35;;;;;;;9.93;6.03;;;22.50;99.90;;;;;;4976944;28;20563;-53
2022/09/07 10:23:04;;;;;;;5.20;4.70;;;22.40;99.90;;;;;;4978531;28;20473;-53
2022/09/07 10:25:32;;;;;;;13.83;5.73;;;22.50;99.90;;;;;;4973964;28;20465;-53
2022/09/07 10:28:14;;;;;;;10.60;5.10;;;22.50;99.90;;;;;;4975634;28;20501;-53
2022/09/07 10:30:55;;;;;;;6.20;4.80;;;22.50;99.90;;;;;;4977390;28;20476;-52
2022/09/07 10:33:29;;;;;;;10.10;5.43;;;22.50;99.90;;;;;;4982109;28;20532;-53
2022/09/07 10:36:03;;;;;;;7.43;5.40;;;22.60;99.90;;;;;;4979566;28;20460;-52
2022/09/07 10:38:34;;;;;;;11.27;5.43;;;22.60;99.90;;;;;;4969580;28;20520;-53
2022/09/07 10:41:04;;;;;;;7.83;5.70;;;22.60;99.90;;;;;;4973874;28;20493;-52
2022/09/07 10:43:43;;;;;;;13.33;5.17;;;22.80;99.90;;;;;;4974162;28;20476;-53
2022/09/07 10:46:26;;;;;;;21.83;6.13;;;23.30;99.90;;;;;;4966633;28;20481;-53
2022/09/07 10:49:05;;;;;;;18.57;5.90;;;23.50;99.90;;;;;;4968336;28;20520;-52
2022/09/07 10:51:39;;;;;;;6.07;4.90;;;23.30;99.90;;;;;;4966861;28;20525;-53
2022/09/07 10:54:16;;;;;;;6.77;5.27;;;23.30;99.90;;;;;;4971620;28;20456;-52
2022/09/07 10:56:59;;;;;;;16.70;5.97;;;23.30;99.90;;;;;;4968057;28;20535;-53
2022/09/07 10:59:36;;;;;;;7.43;6.00;;;23.40;99.90;;;;;;4974333;28;20461;-53
2022/09/07 11:02:16;;;;;;;10.53;5.07;;;23.40;99.90;;;;;;4974172;28;20457;-53
2022/09/07 11:05:01;;;;;;;14.53;6.07;;;23.40;99.90;;;;;;4972571;28;20540;-53
2022/09/07 11:07:54;;;;;;;27.60;6.80;;;23.40;99.90;;;;;;4976686;28;20510;-53
2022/09/07 11:10:29;;;;;;;18.97;5.40;;;23.40;99.90;;;;;;4973861;28;20552;-53
2022/09/07 11:12:59;;;;;;;18.07;5.87;;;23.30;99.90;;;;;;4967489;28;20547;-53
2022/09/07 11:15:28;;;;;;;16.50;5.67;;;23.10;99.90;;;;;;4975150;28;20494;-53
2022/09/07 11:18:00;;;;;;;7.27;5.20;;;23.10;99.90;;;;;;4968436;28;20497;-53
2022/09/07 11:20:31;;;;;;;7.70;4.97;;;23.00;99.90;;;;;;4967185;28;20547;-53
2022/09/07 11:23:06;;;;;;;15.60;5.77;;;23.00;99.90;;;;;;4960900;28;20549;-55
2022/09/07 11:25:38;;;;;;;12.10;5.20;;;23.00;99.90;;;;;;4977100;28;20461;-52
2022/09/07 11:28:13;;;;;;;11.63;5.00;;;23.00;99.90;;;;;;4981276;28;20883;-52
2022/09/07 11:30:45;;;;;;;10.13;4.93;;;23.20;99.90;;;;;;4962389;28;20566;-53
2022/09/07 11:33:19;;;;;;;6.03;5.43;;;23.30;99.90;;;;;;4969491;28;20536;-52
2022/09/07 11:35:51;;;;;;;6.23;5.17;;;23.50;99.90;;;;;;4972028;28;20548;-53
2022/09/07 11:38:25;;;;;;;7.93;5.73;;;23.50;99.90;;;;;;4985057;23;20465;-52
2022/09/07 11:41:00;;;;;;;8.70;5.07;;;23.60;99.90;;;;;;4978575;28;21057;-51
2022/09/07 11:43:30;;;;;;;12.73;5.60;;;23.60;99.90;;;;;;4987282;28;20507;-50
2022/09/07 11:46:03;;;;;;;8.77;5.77;;;23.60;99.90;;;;;;4990899;28;20519;-52
2022/09/07 11:48:35;;;;;;;9.10;4.80;;;23.60;99.90;;;;;;5000184;28;20547;-50
2022/09/07 11:51:07;;;;;;;5.83;5.07;;;23.60;99.90;;;;;;4985497;28;21040;-51
2022/09/07 11:53:38;;;;;;;5.70;5.20;;;23.60;99.90;;;;;;4990755;28;20460;-50
2022/09/07 11:56:12;;;;;;;9.60;5.80;;;23.60;99.90;;;;;;4997956;28;20536;-50
2022/09/07 11:58:56;;;;;;;10.43;5.97;;;23.60;99.90;;;;;;4991712;28;20546;-51
2022/09/07 12:01:33;;;;;;;11.50;5.60;;;23.60;99.90;;;;;;4990518;28;20464;-51
2022/09/07 12:04:26;;;;;;;12.00;6.03;;;23.60;99.90;;;;;;4984715;28;20937;-50
2022/09/07 12:07:25;;;;;;;8.50;5.80;;;23.60;99.90;;;;;;4986658;28;21055;-51
2022/09/07 12:10:18;;;;;;;7.17;4.93;;;23.50;99.90;;;;;;4982114;28;20566;-51
2022/09/07 12:13:07;;;;;;;11.13;5.70;;;23.50;99.90;;;;;;4985962;28;20509;-51
2022/09/07 12:15:43;;;;;;;7.80;5.30;;;23.50;99.90;;;;;;4983883;28;20497;-51
2022/09/07 12:18:32;;;;;;;9.47;5.83;;;23.50;99.90;;;;;;4996126;28;20525;-51
2022/09/07 12:21:01;;;;;;;10.10;5.77;;;23.40;99.90;;;;;;4982318;28;20492;-51
2022/09/07 12:23:29;;;;;;;18.13;5.80;;;23.40;99.90;;;;;;4982610;28;20460;-50
2022/09/07 12:26:35;;;;;;;12.57;5.77;;;23.30;99.90;;;;;;4988126;28;20496;-52
2022/09/07 12:29:18;;;;;;;8.93;6.50;;;23.30;99.90;;;;;;4962264;28;20479;-51
2022/09/07 12:31:47;;;;;;;7.70;6.37;;;23.30;99.90;;;;;;4986915;28;20710;-50
2022/09/07 12:34:47;;;;;;;9.17;6.00;;;23.30;99.90;;;;;;4986696;28;20805;-51
2022/09/07 12:37:43;;;;;;;10.07;6.07;;;23.40;99.90;;;;;;4986074;28;20858;-51
2022/09/07 12:40:48;;;;;;;7.43;5.73;;;23.50;99.90;;;;;;4955162;28;20921;-51
2022/09/07 12:43:34;;;;;;;10.33;5.90;;;23.50;99.90;;;;;;4983725;28;20511;-51
2022/09/07 12:46:01;;;;;;;6.80;6.20;;;23.50;99.90;;;;;;4988832;28;20483;-51
2022/09/07 12:48:38;;;;;;;14.83;6.30;;;23.50;99.90;;;;;;4987246;28;20570;-52
2022/09/07 12:51:12;;;;;;;11.57;6.40;;;23.50;99.90;;;;;;4985246;28;20904;-53
2022/09/07 12:53:46;;;;;;;13.70;5.20;;;23.60;99.90;;;;;;4985464;28;20523;-52
2022/09/07 12:56:31;;;;;;;14.13;6.30;;;23.60;99.90;;;;;;4987847;28;21004;-52
2022/09/07 12:59:11;;;;;;;9.20;5.37;;;23.60;99.90;;;;;;4986312;28;21005;-52
2022/09/07 13:01:51;;;;;;;9.90;6.13;;;23.50;99.90;;;;;;4988012;28;20452;-51
2022/09/07 13:04:42;;;;;;;10.57;5.90;;;23.50;99.90;;;;;;4991164;28;20934;-51
2022/09/07 13:07:33;;;;;;;6.67;5.97;;;23.50;99.90;;;;;;4988863;28;20488;-51